Terminal Aerodrome Forecast
Issued by NWS

Home | Current Version | Previous Version | Text Only | Print | Product List | Glossary On
Versions: 1 2 3 4 5 6 7 8 9 10 11 12 13 14 15 16 17 18 19 20 21 22 23 24 25 26 27 28 29 30 31 32 33 34 35 36 37 38 39 40 41 42
390
FTUS41 KRLX 211733
TAFCKB
TAF
KCKB 211733Z 2118/2218 26005KT P6SM SCT050
     FM220800 00000KT 4SM BR SCT035
     FM220900 00000KT 3/4SM BR SCT005
     FM221400 22004KT P6SM FEW080=

USA.gov is the U.S. government's official web portal to all federal, state and local government web resources and services.